createdAt,value
2018-03-02T00:00:25.691Z,54.30
2018-03-02T00:02:52.295Z,49.53
2018-03-02T00:05:18.969Z,53.85
2018-03-02T00:07:45.574Z,60.28
2018-03-02T00:10:12.178Z,59.72
2018-03-02T00:12:38.760Z,70.78
2018-03-02T00:15:05.334Z,60.30
2018-03-02T00:17:32.671Z,67.07
2018-03-02T00:19:59.252Z,70.53
2018-03-02T00:22:26.555Z,77.50
2018-03-02T00:24:53.153Z,64.57
2018-03-02T00:27:19.766Z,64.75
2018-03-02T00:29:47.113Z,65.68
2018-03-02T00:32:13.748Z,55.80
2018-03-02T00:34:41.091Z,49.63
2018-03-02T00:37:08.395Z,53.33
2018-03-02T00:39:34.962Z,54.55
2018-03-02T00:42:01.506Z,63.03
2018-03-02T00:44:28.084Z,65.03
2018-03-02T00:46:55.367Z,52.58
2018-03-02T00:49:21.921Z,67.25
2018-03-02T00:51:48.467Z,57.15
2018-03-02T00:54:15.125Z,59.33
2018-03-02T00:56:41.770Z,61.28
2018-03-02T00:59:08.884Z,66.95
2018-03-02T01:01:35.421Z,64.72
2018-03-02T01:04:02.778Z,59.08
2018-03-02T01:06:29.434Z,60.03
2018-03-02T01:08:56.789Z,59.50
2018-03-02T01:11:24.126Z,64.28
2018-03-02T01:13:50.755Z,58.45
2018-03-02T01:16:17.317Z,59.05
2018-03-02T01:18:44.753Z,70.47
2018-03-02T01:21:12.074Z,62.78
2018-03-02T01:23:38.928Z,58.92
2018-03-02T01:26:05.509Z,62.83
2018-03-02T01:28:32.822Z,61.33
2018-03-02T01:30:59.396Z,69.60
2018-03-02T01:33:25.998Z,61.60
2018-03-02T01:35:52.603Z,58.40
2018-03-02T01:38:19.894Z,58.63
2018-03-02T01:40:46.479Z,68.22
2018-03-02T01:43:13.126Z,66.22
2018-03-02T01:45:40.455Z,68.97
2018-03-02T01:48:07.040Z,70.30
2018-03-02T01:50:33.660Z,66.45
2018-03-02T01:53:00.267Z,62.67
2018-03-02T01:55:27.595Z,62.75
2018-03-02T01:57:54.192Z,61.58
2018-03-02T02:00:20.778Z,61.83
2018-03-02T02:02:48.120Z,63.45
2018-03-02T02:05:14.729Z,58.47
2018-03-02T02:07:41.327Z,68.97
2018-03-02T02:10:07.948Z,64.50
2018-03-02T02:12:34.550Z,65.57
2018-03-02T02:15:01.138Z,64.22
2018-03-02T02:17:28.667Z,58.20
2018-03-02T02:19:55.202Z,59.22
2018-03-02T02:22:22.481Z,68.62
2018-03-02T02:24:49.811Z,56.28
2018-03-02T02:27:16.383Z,50.65
2018-03-02T02:29:43.682Z,54.70
2018-03-02T02:32:10.236Z,51.63
2018-03-02T02:34:36.846Z,55.33
2018-03-02T02:37:03.490Z,50.45
2018-03-02T02:39:30.048Z,48.55
2018-03-02T02:41:56.964Z,51.50
2018-03-02T02:44:23.523Z,52.30
2018-03-02T02:46:50.073Z,56.13
2018-03-02T02:49:16.655Z,52.03
2018-03-02T02:51:43.205Z,48.08
2018-03-02T02:54:09.834Z,61.28
2018-03-02T02:56:36.378Z,59.50
2018-03-02T02:59:02.946Z,58.97
2018-03-02T03:01:29.552Z,55.60
2018-03-02T03:03:56.137Z,57.58
2018-03-02T03:06:22.939Z,66.12
2018-03-02T03:08:49.554Z,54.08
2018-03-02T03:11:16.136Z,70.20
2018-03-02T03:13:42.732Z,63.05
2018-03-02T03:16:09.337Z,62.30
2018-03-02T03:18:36.675Z,56.25
2018-03-02T03:21:03.230Z,63.00
2018-03-02T03:23:30.549Z,54.65
2018-03-02T03:25:57.102Z,58.22
2018-03-02T03:28:23.673Z,60.35
2018-03-02T03:30:50.947Z,51.10
2018-03-02T03:33:17.538Z,60.50
2018-03-02T03:35:44.857Z,63.50
2018-03-02T03:38:11.434Z,64.80
2018-03-02T03:40:38.090Z,61.95
2018-03-02T03:43:04.645Z,65.07
2018-03-02T03:45:32.023Z,63.65
2018-03-02T03:47:58.602Z,69.65
2018-03-02T03:50:25.258Z,65.72
2018-03-02T03:52:51.822Z,74.10
2018-03-02T03:55:18.398Z,64.30
2018-03-02T03:57:45.037Z,57.22
2018-03-02T04:00:11.667Z,70.57
2018-03-02T04:02:39.019Z,70.18
2018-03-02T04:05:05.612Z,71.53
2018-03-02T04:07:32.193Z,59.20
2018-03-02T04:09:58.726Z,67.25
2018-03-02T04:12:25.747Z,67.25
2018-03-02T04:14:52.302Z,64.60
2018-03-02T04:17:19.614Z,65.35
2018-03-02T04:19:46.182Z,77.18
2018-03-02T04:22:12.739Z,80.10
2018-03-02T04:24:39.285Z,65.37
2018-03-02T04:27:06.570Z,63.72
2018-03-02T04:29:33.159Z,73.50
2018-03-02T04:31:59.722Z,80.18
2018-03-02T04:34:27.039Z,75.65
2018-03-02T04:36:53.584Z,64.18
2018-03-02T04:39:20.183Z,68.82
2018-03-02T04:41:46.734Z,70.32
2018-03-02T04:44:13.324Z,66.80
2018-03-02T04:46:39.858Z,68.70
2018-03-02T04:49:07.446Z,65.43
2018-03-02T04:51:34.034Z,71.80
2018-03-02T04:54:00.566Z,77.82
2018-03-02T04:56:27.881Z,79.97
2018-03-02T04:58:54.481Z,78.05
2018-03-02T05:01:21.806Z,77.62
2018-03-02T05:03:48.708Z,80.65
2018-03-02T05:06:15.270Z,78.97
2018-03-02T05:08:41.890Z,76.68
2018-03-02T05:11:08.845Z,72.12
2018-03-02T05:13:35.564Z,78.62
2018-03-02T05:16:02.143Z,76.03
2018-03-02T05:18:28.786Z,68.37
2018-03-02T05:20:55.350Z,76.97
2018-03-02T05:23:22.673Z,76.78
2018-03-02T05:25:50.030Z,104.25
2018-03-02T05:28:16.589Z,77.10
2018-03-02T05:30:43.875Z,74.97
2018-03-02T05:33:10.706Z,78.07
2018-03-02T05:35:37.274Z,75.78
2018-03-02T05:38:03.862Z,74.78
2018-03-02T05:40:31.162Z,75.30
2018-03-02T05:42:57.701Z,79.72
2018-03-02T05:45:24.614Z,77.05
2018-03-02T05:47:51.155Z,84.85
2018-03-02T05:50:17.717Z,77.43
2018-03-02T05:52:44.283Z,73.53
2018-03-02T05:55:10.882Z,80.30
2018-03-02T05:57:37.521Z,78.12
2018-03-02T06:00:04.194Z,69.90
2018-03-02T06:02:31.497Z,81.72
2018-03-02T06:04:58.054Z,73.62
2018-03-02T06:07:24.654Z,76.28
2018-03-02T06:09:51.283Z,83.82
2018-03-02T06:12:18.976Z,72.45
2018-03-02T06:14:45.517Z,80.30
2018-03-02T06:17:12.109Z,84.45
2018-03-02T06:19:38.707Z,79.32
2018-03-02T06:22:05.362Z,90.40
2018-03-02T06:24:31.970Z,78.25
2018-03-02T06:26:58.533Z,85.60
2018-03-02T06:29:25.904Z,93.62
2018-03-02T06:31:52.484Z,83.95
2018-03-02T06:34:19.819Z,87.40
2018-03-02T06:36:46.411Z,89.85
2018-03-02T06:39:13.001Z,77.65
2018-03-02T06:41:39.588Z,77.07
2018-03-02T06:44:06.918Z,81.85
2018-03-02T06:46:33.494Z,83.20
2018-03-02T06:49:00.063Z,83.70
2018-03-02T06:51:26.661Z,93.03
2018-03-02T06:53:53.245Z,90.95
2018-03-02T06:56:19.893Z,80.78
2018-03-02T06:58:46.815Z,94.68
2018-03-02T07:01:13.440Z,87.22
2018-03-02T07:03:40.035Z,80.18
2018-03-02T07:06:07.514Z,82.00
2018-03-02T07:08:34.880Z,77.30
2018-03-02T07:11:01.447Z,88.62
2018-03-02T07:13:28.298Z,87.00
2018-03-02T07:15:54.866Z,82.22
2018-03-02T07:18:21.506Z,81.15
2018-03-02T07:20:48.847Z,75.35
2018-03-02T07:23:15.395Z,85.65
2018-03-02T07:25:42.251Z,80.05
2018-03-02T07:28:09.750Z,85.22
2018-03-02T07:30:36.301Z,83.55
2018-03-02T07:33:02.864Z,86.43
2018-03-02T07:35:29.421Z,85.22
2018-03-02T07:37:56.051Z,79.80
2018-03-02T07:40:22.668Z,80.10
2018-03-02T07:42:49.207Z,80.25
2018-03-02T07:45:15.758Z,75.20
2018-03-02T07:47:42.379Z,87.57
2018-03-02T07:50:08.939Z,82.82
2018-03-02T07:52:36.251Z,84.25
2018-03-02T07:55:02.843Z,78.87
2018-03-02T07:57:30.165Z,82.55
2018-03-02T07:59:56.719Z,84.03
2018-03-02T08:02:24.066Z,74.18
2018-03-02T08:04:50.643Z,77.87
2018-03-02T08:07:17.274Z,86.03
2018-03-02T08:09:43.878Z,77.87
2018-03-02T08:12:10.435Z,72.80
2018-03-02T08:14:37.046Z,79.15
2018-03-02T08:17:04.383Z,76.32
2018-03-02T08:19:30.990Z,81.50
2018-03-02T08:21:57.683Z,78.55
2018-03-02T08:24:25.019Z,71.30
2018-03-02T08:26:51.843Z,67.80
2018-03-02T08:29:18.427Z,73.68
2018-03-02T08:31:45.004Z,70.60
2018-03-02T08:34:11.576Z,66.93
2018-03-02T08:36:38.128Z,65.43
2018-03-02T08:39:04.793Z,66.45
2018-03-02T08:41:32.195Z,65.40
2018-03-02T08:43:59.741Z,61.25
2018-03-02T08:46:26.312Z,73.22
2018-03-02T08:48:52.907Z,66.82
2018-03-02T08:51:19.496Z,60.33
2018-03-02T08:53:46.064Z,68.28
2018-03-02T08:56:12.608Z,64.60
2018-03-02T08:58:39.188Z,67.85
2018-03-02T09:01:06.507Z,66.12
2018-03-02T09:03:33.094Z,60.53
2018-03-02T09:06:00.183Z,66.70
2018-03-02T09:08:26.743Z,67.30
2018-03-02T09:10:54.068Z,64.82
2018-03-02T09:13:20.976Z,63.13
2018-03-02T09:15:47.999Z,67.37
2018-03-02T09:18:14.592Z,65.50
2018-03-02T09:20:41.166Z,65.55
2018-03-02T09:23:07.734Z,66.78
2018-03-02T09:25:34.330Z,63.10
2018-03-02T09:28:00.886Z,60.35
2018-03-02T09:30:27.779Z,60.42
2018-03-02T09:32:54.346Z,63.50
2018-03-02T09:35:20.946Z,63.92
2018-03-02T09:37:47.512Z,62.33
2018-03-02T09:40:15.137Z,63.60
2018-03-02T09:42:41.708Z,60.58
2018-03-02T09:45:08.309Z,60.05
2018-03-02T09:47:34.912Z,60.47
2018-03-02T09:50:02.546Z,58.80
2018-03-02T09:52:29.115Z,60.55
2018-03-02T09:54:56.426Z,56.88
2018-03-02T09:57:23.054Z,65.50
2018-03-02T09:59:49.684Z,64.70
2018-03-02T10:02:16.282Z,61.97
2018-03-02T10:04:43.603Z,67.20
2018-03-02T10:07:10.177Z,69.20
2018-03-02T10:09:37.487Z,66.18
2018-03-02T10:12:04.399Z,70.75
2018-03-02T10:14:30.966Z,67.65
2018-03-02T10:16:57.512Z,61.97
2018-03-02T10:19:24.107Z,65.93
2018-03-02T10:21:50.697Z,66.75
2018-03-02T10:24:17.329Z,62.42
2018-03-02T10:26:43.893Z,61.63
2018-03-02T10:29:10.867Z,68.32
2018-03-02T10:31:37.543Z,64.15
2018-03-02T10:34:04.807Z,65.70
2018-03-02T10:36:31.404Z,63.05
2018-03-02T10:38:57.937Z,66.50
2018-03-02T10:41:24.510Z,63.50
2018-03-02T10:43:51.101Z,62.15
2018-03-02T10:46:17.674Z,65.68
2018-03-02T10:48:44.231Z,62.62
2018-03-02T10:51:10.787Z,71.50
2018-03-02T10:53:37.402Z,63.83
2018-03-02T10:56:04.717Z,76.53
2018-03-02T10:58:31.546Z,59.70
2018-03-02T11:00:58.149Z,64.03
2018-03-02T11:03:24.758Z,68.18
2018-03-02T11:05:52.471Z,62.60
2018-03-02T11:08:19.798Z,66.68
2018-03-02T11:10:47.074Z,61.50
2018-03-02T11:13:13.640Z,67.95
2018-03-02T11:15:40.226Z,69.12
2018-03-02T11:18:07.576Z,67.47
2018-03-02T11:20:34.162Z,66.50
2018-03-02T11:23:01.903Z,69.15
2018-03-02T11:25:28.458Z,67.40
2018-03-02T11:27:55.081Z,67.10
2018-03-02T11:30:21.682Z,67.80
2018-03-02T11:32:48.538Z,65.07
2018-03-02T11:35:15.841Z,65.50
2018-03-02T11:37:43.178Z,65.75
2018-03-02T11:40:09.806Z,72.53
2018-03-02T11:42:36.394Z,65.65
2018-03-02T11:45:02.997Z,75.78
2018-03-02T11:47:29.689Z,67.07
2018-03-02T11:49:57.386Z,66.57
2018-03-02T11:52:23.942Z,69.22
2018-03-02T11:54:50.529Z,72.20
2018-03-02T11:57:17.850Z,66.50
2018-03-02T11:59:45.199Z,66.00
2018-03-02T12:02:12.127Z,62.65
2018-03-02T12:04:38.719Z,61.97
2018-03-02T12:07:06.060Z,64.07
2018-03-02T12:09:33.394Z,64.82
2018-03-02T12:12:00.737Z,69.35
2018-03-02T12:14:27.555Z,66.37
2018-03-02T12:16:54.133Z,69.12
2018-03-02T12:19:20.674Z,68.37
2018-03-02T12:21:47.294Z,94.30
2018-03-02T12:24:13.860Z,68.95
2018-03-02T12:26:40.967Z,71.10
2018-03-02T12:29:07.554Z,72.53
2018-03-02T12:31:34.167Z,65.65
2018-03-02T12:34:01.486Z,68.35
2018-03-02T12:36:28.038Z,80.00
2018-03-02T12:38:55.362Z,74.37
2018-03-02T12:41:22.318Z,81.10
2018-03-02T12:43:48.895Z,66.55
2018-03-02T12:46:15.544Z,68.05
2018-03-02T12:48:42.313Z,77.50
2018-03-02T12:51:08.919Z,72.68
2018-03-02T12:53:37.084Z,63.83
2018-03-02T12:56:04.393Z,70.78
2018-03-02T12:58:30.981Z,78.50
2018-03-02T13:00:57.656Z,65.72
2018-03-02T13:03:24.259Z,74.60
2018-03-02T13:05:50.900Z,67.70
2018-03-02T13:08:17.458Z,64.15
2018-03-02T13:10:44.053Z,70.78
2018-03-02T13:13:11.431Z,71.90
2018-03-02T13:15:38.038Z,72.93
2018-03-02T13:18:05.420Z,71.40
2018-03-02T13:20:32.032Z,70.70
2018-03-02T13:22:58.690Z,68.72
2018-03-02T13:25:25.327Z,68.40
2018-03-02T13:28:11.022Z,63.70
2018-03-02T13:30:37.546Z,77.93
2018-03-02T13:33:23.438Z,70.35
2018-03-02T13:35:50.023Z,69.60
2018-03-02T13:38:16.605Z,69.00
2018-03-02T13:41:02.335Z,74.00
2018-03-02T13:43:29.627Z,75.68
2018-03-02T13:45:56.337Z,76.62
2018-03-02T13:48:42.142Z,74.87
2018-03-02T13:51:08.689Z,75.35
2018-03-02T13:53:35.323Z,85.07
2018-03-02T13:56:02.695Z,76.47
2018-03-02T13:58:29.324Z,76.15
2018-03-02T14:00:55.945Z,71.03
2018-03-02T14:03:40.811Z,74.78
2018-03-02T14:06:07.386Z,68.35
2018-03-02T14:08:33.983Z,69.90
2018-03-02T14:11:00.604Z,68.60
2018-03-02T14:13:27.524Z,68.93
2018-03-02T14:15:54.107Z,71.93
2018-03-02T14:18:20.739Z,72.40
2018-03-02T14:20:48.104Z,75.35
2018-03-02T14:23:14.754Z,75.60
2018-03-02T14:25:41.389Z,69.72
2018-03-02T14:28:08.020Z,73.43
2018-03-02T14:30:35.376Z,73.75
2018-03-02T14:33:02.894Z,69.05
2018-03-02T14:35:29.446Z,71.35
2018-03-02T14:37:56.022Z,78.43
2018-03-02T14:40:23.368Z,87.65
2018-03-02T14:42:50.710Z,72.43
2018-03-02T14:45:18.060Z,73.32
2018-03-02T14:47:44.959Z,76.43
2018-03-02T14:50:11.536Z,74.75
2018-03-02T14:52:38.151Z,73.78
2018-03-02T14:55:05.091Z,75.65
2018-03-02T14:57:31.678Z,77.78
2018-03-02T14:59:58.971Z,73.85
2018-03-02T15:02:25.987Z,74.40
2018-03-02T15:04:52.519Z,71.90
2018-03-02T15:07:19.113Z,76.10
2018-03-02T15:09:45.691Z,81.07
2018-03-02T15:12:12.324Z,79.22
2018-03-02T15:14:38.983Z,82.20
2018-03-02T15:17:05.548Z,81.55
2018-03-02T15:19:32.115Z,82.80
2018-03-02T15:21:58.713Z,82.95
2018-03-02T15:24:25.355Z,80.50
2018-03-02T15:26:51.951Z,81.68
2018-03-02T15:29:18.830Z,81.30
2018-03-02T15:31:45.473Z,79.10
2018-03-02T15:34:12.050Z,83.75
2018-03-02T15:36:39.408Z,88.10
2018-03-02T15:39:06.769Z,87.62
2018-03-02T15:41:34.099Z,81.50
2018-03-02T15:44:00.776Z,90.43
2018-03-02T15:46:27.334Z,96.37
2018-03-02T15:48:53.903Z,95.68
2018-03-02T15:51:21.340Z,83.22
2018-03-02T15:53:47.921Z,83.15
2018-03-02T15:56:14.556Z,85.93
2018-03-02T15:58:41.118Z,89.37
2018-03-02T16:01:07.689Z,88.70
2018-03-02T16:03:34.430Z,89.03
2018-03-02T16:06:01.055Z,96.40
2018-03-02T16:08:27.767Z,87.75
2018-03-02T16:10:54.369Z,83.43
2018-03-02T16:13:21.024Z,89.93
2018-03-02T16:15:48.372Z,94.95
2018-03-02T16:18:15.139Z,91.90
2018-03-02T16:20:41.927Z,97.47
2018-03-02T16:23:08.485Z,119.35
2018-03-02T16:25:35.110Z,114.50
2018-03-02T16:28:01.807Z,96.47
2018-03-02T16:30:28.489Z,116.35
2018-03-02T16:32:55.314Z,86.37
2018-03-02T16:35:21.899Z,94.40
2018-03-02T16:37:48.553Z,85.97
2018-03-02T16:40:15.153Z,88.87
2018-03-02T16:42:41.766Z,79.70
2018-03-02T16:45:08.375Z,81.47
2018-03-02T16:47:34.968Z,87.30
2018-03-02T16:50:01.652Z,81.53
2018-03-02T16:52:28.298Z,77.55
2018-03-02T16:54:54.927Z,88.87
2018-03-02T16:57:21.606Z,78.30
2018-03-02T16:59:48.195Z,88.00
2018-03-02T17:02:14.909Z,86.15
2018-03-02T17:04:41.759Z,91.22
2018-03-02T17:07:08.327Z,89.57
2018-03-02T17:09:34.908Z,85.22
2018-03-02T17:12:01.806Z,77.90
2018-03-02T17:14:28.401Z,81.30
2018-03-02T17:16:55.729Z,82.18
2018-03-02T17:19:22.672Z,88.68
2018-03-02T17:21:49.233Z,87.97
2018-03-02T17:24:16.544Z,80.95
2018-03-02T17:26:43.186Z,88.35
2018-03-02T17:29:09.746Z,84.30
2018-03-02T17:31:36.374Z,87.55
2018-03-02T17:34:03.746Z,81.93
2018-03-02T17:36:30.386Z,79.78
2018-03-02T17:38:57.005Z,74.10
2018-03-02T17:41:23.587Z,72.30
2018-03-02T17:43:50.151Z,73.43
2018-03-02T17:46:17.506Z,72.07
2018-03-02T17:48:44.929Z,82.20
2018-03-02T17:51:11.565Z,77.28
2018-03-02T17:53:38.151Z,65.90
2018-03-02T17:56:07.576Z,57.33
2018-03-02T17:58:34.964Z,57.70
2018-03-02T18:01:01.659Z,58.40
2018-03-02T18:03:28.241Z,63.67
2018-03-02T18:05:54.868Z,62.58
2018-03-02T18:08:21.626Z,49.75
2018-03-02T18:10:48.257Z,52.22
2018-03-02T18:13:14.934Z,49.58
2018-03-02T18:15:41.483Z,46.22
2018-03-02T18:18:08.089Z,46.60
2018-03-02T18:20:34.712Z,45.03
2018-03-02T18:23:01.300Z,46.72
2018-03-02T18:25:28.642Z,42.42
2018-03-02T18:27:56.018Z,49.33
2018-03-02T18:30:22.588Z,38.83
2018-03-02T18:32:49.189Z,41.28
2018-03-02T18:35:16.502Z,41.92
2018-03-02T18:37:43.063Z,44.67
2018-03-02T18:40:09.727Z,40.90
2018-03-02T18:42:37.074Z,50.33
2018-03-02T18:45:04.427Z,58.42
2018-03-02T18:47:31.114Z,50.30
2018-03-02T18:49:57.696Z,73.95
2018-03-02T18:52:24.558Z,51.70
2018-03-02T18:54:51.158Z,43.10
2018-03-02T18:57:17.829Z,41.72
2018-03-02T18:59:45.375Z,40.88
2018-03-02T19:02:12.680Z,32.85
2018-03-02T19:04:39.280Z,41.78
2018-03-02T19:07:05.963Z,35.10
2018-03-02T19:09:32.584Z,33.33
2018-03-02T19:11:59.179Z,31.15
2018-03-02T19:14:26.501Z,33.28
2018-03-02T19:16:53.071Z,31.60
2018-03-02T19:19:19.654Z,31.02
2018-03-02T19:21:46.475Z,31.87
2018-03-02T19:24:13.081Z,31.40
2018-03-02T19:26:39.726Z,30.45
2018-03-02T19:29:07.082Z,33.60
2018-03-02T19:31:33.675Z,32.38
2018-03-02T19:34:00.285Z,29.95
2018-03-02T19:36:27.060Z,33.15
2018-03-02T19:38:53.783Z,34.67
2018-03-02T19:41:20.377Z,28.92
2018-03-02T19:43:47.746Z,32.13
2018-03-02T19:46:14.356Z,26.92
2018-03-02T19:48:41.768Z,37.22
2018-03-02T19:51:08.738Z,26.17
2018-03-02T19:53:35.321Z,37.35
2018-03-02T19:56:01.891Z,36.90
2018-03-02T19:58:28.517Z,30.95
2018-03-02T20:00:55.174Z,23.87
2018-03-02T20:03:22.502Z,25.58
2018-03-02T20:05:49.085Z,22.55
2018-03-02T20:08:16.010Z,24.10
2018-03-02T20:10:42.595Z,24.27
2018-03-02T20:13:09.195Z,26.25
2018-03-02T20:15:36.630Z,23.23
2018-03-02T20:18:03.214Z,23.73
2018-03-02T20:20:30.515Z,26.20
2018-03-02T20:22:57.120Z,22.20
2018-03-02T20:25:23.859Z,19.02
2018-03-02T20:27:50.465Z,19.15
2018-03-02T20:30:17.841Z,14.70
2018-03-02T20:32:44.508Z,13.02
2018-03-02T20:35:11.086Z,17.40
2018-03-02T20:37:37.675Z,17.87
2018-03-02T20:40:04.313Z,15.60
2018-03-02T20:42:30.938Z,21.05
2018-03-02T20:44:57.591Z,18.23
2018-03-02T20:47:24.274Z,18.67
2018-03-02T20:49:50.880Z,20.85
2018-03-02T20:52:17.501Z,20.50
2018-03-02T20:54:44.119Z,21.50
2018-03-02T20:57:11.468Z,21.27
2018-03-02T20:59:38.810Z,18.10
2018-03-02T21:02:05.550Z,20.52
2018-03-02T21:04:32.876Z,18.90
2018-03-02T21:06:59.485Z,18.80
2018-03-02T21:09:26.067Z,20.00
2018-03-02T21:11:52.980Z,19.10
2018-03-02T21:14:19.548Z,24.40
2018-03-02T21:16:46.956Z,20.95
2018-03-02T21:19:13.567Z,18.70
2018-03-02T21:21:40.942Z,23.67
2018-03-02T21:24:07.550Z,30.45
2018-03-02T21:26:34.894Z,24.80
2018-03-02T21:29:01.482Z,19.90
2018-03-02T21:31:28.091Z,20.73
2018-03-02T21:33:54.720Z,23.38
2018-03-02T21:36:22.060Z,18.77
2018-03-02T21:38:49.405Z,23.02
2018-03-02T21:41:15.981Z,19.35
2018-03-02T21:43:42.641Z,18.98
2018-03-02T21:46:09.190Z,17.67
2018-03-02T21:48:35.758Z,18.00
2018-03-02T21:51:03.198Z,17.27
2018-03-02T21:53:29.774Z,17.20
2018-03-02T21:55:56.393Z,18.52
2018-03-02T21:58:23.734Z,18.40
2018-03-02T22:00:50.642Z,20.23
2018-03-02T22:03:17.217Z,23.62
2018-03-02T22:05:43.803Z,19.17
2018-03-02T22:08:10.390Z,20.88
2018-03-02T22:10:36.965Z,18.40
2018-03-02T22:13:03.624Z,20.50
2018-03-02T22:15:30.202Z,23.30
2018-03-02T22:17:57.542Z,20.52
2018-03-02T22:20:24.122Z,23.30
2018-03-02T22:22:50.769Z,18.33
2018-03-02T22:25:17.375Z,20.88
2018-03-02T22:27:44.710Z,21.52
2018-03-02T22:30:11.555Z,23.58
2018-03-02T22:32:38.127Z,24.42
2018-03-02T22:35:05.454Z,19.48
2018-03-02T22:37:32.763Z,24.23
2018-03-02T22:39:59.335Z,28.50
2018-03-02T22:42:25.883Z,27.13
2018-03-02T22:44:52.476Z,29.35
2018-03-02T22:47:19.089Z,37.90
2018-03-02T22:49:45.663Z,34.08
2018-03-02T22:52:12.242Z,32.60
2018-03-02T22:54:39.538Z,33.80
2018-03-02T22:57:06.112Z,29.77
2018-03-02T22:59:32.659Z,38.30
2018-03-02T23:01:59.254Z,32.05
2018-03-02T23:04:25.850Z,24.40
2018-03-02T23:06:52.420Z,25.33
2018-03-02T23:09:19.007Z,26.60
2018-03-02T23:11:46.350Z,26.35
2018-03-02T23:14:13.250Z,36.55
2018-03-02T23:16:39.799Z,25.55
2018-03-02T23:19:06.355Z,31.55
2018-03-02T23:21:32.992Z,33.50
2018-03-02T23:24:00.359Z,40.12
2018-03-02T23:26:27.695Z,48.40
2018-03-02T23:28:54.311Z,39.10
2018-03-02T23:31:21.622Z,33.47
2018-03-02T23:33:48.974Z,29.35
2018-03-02T23:36:16.299Z,37.15
2018-03-02T23:38:43.639Z,37.47
2018-03-02T23:41:10.918Z,26.05
2018-03-02T23:43:38.214Z,24.98
2018-03-02T23:46:04.798Z,34.03
2018-03-02T23:48:31.358Z,26.92
2018-03-02T23:50:58.657Z,29.27
2018-03-02T23:53:25.234Z,23.42
2018-03-02T23:55:52.845Z,22.10
2018-03-02T23:58:19.421Z,32.88
